Time;durP1;ratioP1;P1;durP2;ratioP2;P2;SDS_P1;SDS_P2;PMS_P1;PMS_P2;Temp;Humidity;BMP_temperature;BMP_pressure;BME280_temperature;BME280_humidity;BME280_pressure;Samples;Min_cycle;Max_cycle;Signal;HPM_P1;HPM_P2
2023/09/11 00:00:31;;;;;;;23.98;11.63;;;24.40;99.90;;;;;;5013809;28;20053;-37
2023/09/11 00:02:57;;;;;;;17.85;11.27;;;25.50;99.90;;;;;;5013672;28;20400;-37
2023/09/11 00:05:23;;;;;;;15.65;12.18;;;25.30;99.90;;;;;;5013571;28;20100;-36
2023/09/11 00:07:48;;;;;;;19.15;12.50;;;24.20;99.90;;;;;;5007645;28;20034;-34
2023/09/11 00:10:15;;;;;;;20.60;12.43;;;24.70;99.90;;;;;;5013842;28;20058;-35
2023/09/11 00:12:41;;;;;;;24.95;13.02;;;24.20;99.90;;;;;;5011482;28;20026;-34
2023/09/11 00:15:07;;;;;;;19.70;12.52;;;24.80;99.90;;;;;;5012457;28;20535;-37
2023/09/11 00:17:33;;;;;;;21.67;11.70;;;25.10;99.90;;;;;;5012887;28;20509;-34
2023/09/11 00:19:58;;;;;;;17.77;11.73;;;25.20;99.90;;;;;;5002936;28;20057;-36
2023/09/11 00:22:24;;;;;;;20.50;12.50;;;24.90;99.90;;;;;;5013320;28;20050;-35
2023/09/11 00:24:50;;;;;;;19.70;11.77;;;24.10;99.90;;;;;;5012747;28;20092;-34
2023/09/11 00:27:15;;;;;;;18.42;12.23;;;25.10;99.90;;;;;;5013221;28;20121;-34
2023/09/11 00:29:41;;;;;;;19.13;12.13;;;25.00;99.90;;;;;;5011068;28;20438;-36
2023/09/11 00:32:07;;;;;;;23.35;12.40;;;24.40;99.90;;;;;;5008267;28;20029;-37
2023/09/11 00:34:33;;;;;;;22.83;12.07;;;24.60;99.90;;;;;;5013106;28;20050;-34
2023/09/11 00:36:58;;;;;;;19.73;12.38;;;24.10;99.90;;;;;;5012414;28;20068;-37
2023/09/11 00:39:26;;;;;;;18.85;11.98;;;25.00;99.90;;;;;;5012963;28;20046;-37
2023/09/11 00:41:54;;;;;;;17.65;12.50;;;23.90;99.90;;;;;;5011509;28;20167;-36
2023/09/11 00:44:25;;;;;;;20.20;12.50;;;24.90;99.90;;;;;;5012907;28;20121;-34
2023/09/11 00:46:53;;;;;;;23.60;12.48;;;24.40;99.90;;;;;;5005248;28;20045;-36
2023/09/11 00:49:23;;;;;;;20.88;12.55;;;23.80;99.90;;;;;;5009837;28;20042;-37
2023/09/11 00:51:50;;;;;;;18.30;11.85;;;25.10;1.00;;;;;;5011424;28;20038;-35
2023/09/11 00:54:22;;;;;;;22.40;12.45;;;24.30;1.00;;;;;;5013231;28;20168;-36
2023/09/11 00:56:48;;;;;;;17.95;12.93;;;24.60;1.00;;;;;;5003509;28;20060;-35
2023/09/11 00:59:14;;;;;;;20.40;10.90;;;24.00;99.90;;;;;;5013062;28;20057;-35
2023/09/11 01:01:42;;;;;;;20.27;12.57;;;24.80;1.00;;;;;;5012756;28;20049;-36
2023/09/11 01:04:08;;;;;;;15.52;11.52;;;24.50;1.00;;;;;;5011397;28;20445;-35
2023/09/11 01:06:37;;;;;;;20.27;12.43;;;25.10;1.00;;;;;;5007618;28;20072;-36
2023/09/11 01:09:06;;;;;;;15.80;12.38;;;24.00;1.00;;;;;;5011167;28;20175;-34
2023/09/11 01:11:31;;;;;;;24.30;11.57;;;24.50;99.90;;;;;;5012627;28;20069;-37
2023/09/11 01:13:58;;;;;;;17.92;12.35;;;23.80;1.00;;;;;;5010155;28;20077;-37
2023/09/11 01:17:00;;;;;;;18.20;12.48;;;24.00;1.00;;;;;;5012143;28;20108;-36
2023/09/11 01:19:35;;;;;;;18.20;12.07;;;24.70;1.00;;;;;;4989833;28;20077;-37
2023/09/11 01:22:38;;;;;;;19.20;12.88;;;23.80;99.90;;;;;;5010651;28;20104;-34
2023/09/11 01:25:31;;;;;;;22.55;13.60;;;24.50;1.00;;;;;;5011255;28;20038;-35
2023/09/11 01:28:19;;;;;;;21.90;12.73;;;23.70;1.00;;;;;;5010810;28;20034;-37
2023/09/11 01:30:49;;;;;;;26.80;14.02;;;23.80;1.00;;;;;;5008104;28;20045;-36
2023/09/11 01:33:15;;;;;;;19.52;13.57;;;24.00;1.00;;;;;;5008385;28;20052;-37
2023/09/11 01:35:42;;;;;;;25.70;13.07;;;24.90;1.00;;;;;;5012049;28;20062;-34
2023/09/11 01:38:08;;;;;;;20.88;12.13;;;23.90;1.00;;;;;;5011805;28;20394;-36
2023/09/11 01:40:36;;;;;;;17.98;13.00;;;23.80;1.00;;;;;;5007598;28;20081;-37
2023/09/11 01:43:07;;;;;;;21.33;13.90;;;24.90;1.00;;;;;;5010117;28;20125;-36
2023/09/11 01:45:35;;;;;;;21.27;13.13;;;24.30;1.00;;;;;;5009221;28;20038;-36
2023/09/11 01:48:02;;;;;;;18.67;12.35;;;24.80;1.00;;;;;;5008509;28;20033;-37
2023/09/11 01:50:30;;;;;;;23.30;13.90;;;24.20;1.00;;;;;;5008568;28;20121;-35
2023/09/11 01:52:57;;;;;;;20.23;13.35;;;26.00;1.00;;;;;;5011725;28;20073;-36
2023/09/11 01:55:22;;;;;;;22.80;13.27;;;23.50;1.00;;;;;;5010480;28;20046;-37
2023/09/11 01:57:48;;;;;;;18.52;12.98;;;23.70;1.00;;;;;;5011149;28;20052;-36
2023/09/11 02:00:16;;;;;;;22.20;13.70;;;23.60;1.00;;;;;;5011557;28;20045;-36
2023/09/11 02:02:42;;;;;;;18.10;12.52;;;23.80;1.00;;;;;;5011300;28;20468;-37
2023/09/11 02:05:10;;;;;;;18.92;13.60;;;23.40;1.00;;;;;;5009830;28;20413;-37
2023/09/11 02:07:36;;;;;;;23.85;13.43;;;24.00;1.00;;;;;;5011247;28;20033;-34
2023/09/11 02:10:02;;;;;;;17.75;13.05;;;24.60;1.00;;;;;;5011023;28;20038;-36
2023/09/11 02:12:27;;;;;;;20.88;12.88;;;24.80;1.00;;;;;;5010100;28;20091;-37
2023/09/11 02:14:53;;;;;;;20.10;13.35;;;23.60;1.00;;;;;;5009834;28;20037;-35
2023/09/11 02:17:19;;;;;;;18.95;12.55;;;24.30;1.00;;;;;;5006963;28;20052;-35
2023/09/11 02:19:44;;;;;;;18.80;12.45;;;24.70;1.00;;;;;;5011600;28;20073;-34
2023/09/11 02:22:10;;;;;;;20.38;13.95;;;23.40;1.00;;;;;;5010799;28;20048;-34
2023/09/11 02:24:36;;;;;;;18.98;12.80;;;24.50;1.00;;;;;;5010998;28;20065;-37
2023/09/11 02:27:02;;;;;;;19.60;12.18;;;23.50;1.00;;;;;;5010426;28;20084;-34
2023/09/11 02:29:27;;;;;;;20.77;12.98;;;24.60;1.00;;;;;;5010773;28;20121;-36
2023/09/11 02:31:53;;;;;;;21.45;12.45;;;23.80;1.00;;;;;;5010451;28;20424;-37
2023/09/11 02:34:19;;;;;;;21.60;12.55;;;24.10;1.00;;;;;;5011226;28;20038;-37
2023/09/11 02:36:44;;;;;;;17.88;13.18;;;24.60;1.00;;;;;;5010747;28;20045;-37
2023/09/11 02:39:10;;;;;;;16.90;12.50;;;24.00;1.00;;;;;;5010734;28;20042;-35
2023/09/11 02:41:35;;;;;;;18.75;12.88;;;23.70;1.00;;;;;;5011098;28;20444;-37
2023/09/11 02:44:01;;;;;;;20.25;13.52;;;24.50;1.00;;;;;;5010306;28;20050;-35
2023/09/11 02:46:27;;;;;;;20.05;12.93;;;23.50;1.00;;;;;;5009699;28;20068;-35
2023/09/11 02:48:52;;;;;;;19.30;12.75;;;23.40;1.00;;;;;;5008187;28;20529;-37
2023/09/11 02:51:19;;;;;;;17.65;12.70;;;23.60;1.00;;;;;;5009185;28;20040;-36
2023/09/11 02:53:44;;;;;;;18.67;13.02;;;26.20;1.00;;;;;;5005069;28;20046;-38
2023/09/11 02:56:10;;;;;;;20.70;12.20;;;24.40;1.00;;;;;;5006395;28;20049;-37
2023/09/11 02:58:36;;;;;;;16.70;12.10;;;24.70;1.00;;;;;;5010396;28;20033;-36
2023/09/11 03:01:03;;;;;;;17.50;12.27;;;24.40;1.00;;;;;;5009920;28;20515;-37
2023/09/11 03:03:28;;;;;;;24.60;14.07;;;24.20;1.00;;;;;;5008899;28;20042;-35
2023/09/11 03:05:59;;;;;;;16.13;13.13;;;23.60;1.00;;;;;;5009340;28;20077;-37
2023/09/11 03:08:24;;;;;;;24.25;13.98;;;23.50;1.00;;;;;;5008804;28;20045;-38
2023/09/11 03:11:07;;;;;;;18.98;12.73;;;24.20;1.00;;;;;;5010507;28;20083;-34
2023/09/11 03:13:32;;;;;;;20.10;13.05;;;23.80;1.00;;;;;;5008249;28;20366;-36
2023/09/11 03:16:12;;;;;;;21.20;14.10;;;23.90;1.00;;;;;;5009288;28;20049;-33
2023/09/11 03:18:38;;;;;;;17.60;13.35;;;24.10;1.00;;;;;;5009983;28;20057;-37
2023/09/11 03:21:05;;;;;;;18.55;13.68;;;23.90;1.00;;;;;;5009901;28;20041;-35
2023/09/11 03:23:31;;;;;;;21.75;13.18;;;23.80;1.00;;;;;;5009955;28;20452;-34
2023/09/11 03:26:02;;;;;;;19.80;13.77;;;23.40;1.00;;;;;;5006223;28;20045;-36
2023/09/11 03:28:30;;;;;;;20.27;12.68;;;24.00;1.00;;;;;;5007867;28;20074;-37
2023/09/11 03:30:56;;;;;;;20.98;13.55;;;24.10;1.00;;;;;;5013244;28;20034;-35
2023/09/11 03:33:22;;;;;;;20.23;13.90;;;24.60;1.00;;;;;;5013560;28;20033;-36
2023/09/11 03:35:48;;;;;;;17.63;12.82;;;23.90;1.00;;;;;;5016498;28;20088;-36
2023/09/11 03:38:17;;;;;;;19.20;12.88;;;23.50;1.00;;;;;;5016395;28;20053;-36
2023/09/11 03:40:45;;;;;;;19.80;12.90;;;23.50;1.00;;;;;;5013207;28;20041;-35
2023/09/11 03:43:11;;;;;;;19.85;13.65;;;23.60;1.00;;;;;;4998756;28;20046;-37
2023/09/11 03:45:37;;;;;;;22.13;14.05;;;23.60;1.00;;;;;;5014411;28;20061;-41
2023/09/11 03:48:02;;;;;;;22.75;14.35;;;23.60;1.00;;;;;;5015818;28;20037;-37
2023/09/11 03:50:28;;;;;;;22.15;13.70;;;23.20;1.00;;;;;;5014194;28;20045;-37
2023/09/11 03:52:55;;;;;;;22.75;13.73;;;23.50;1.00;;;;;;5014757;28;20041;-37
2023/09/11 03:55:20;;;;;;;21.13;15.20;;;23.80;1.00;;;;;;4998148;28;20500;-36
2023/09/11 03:57:46;;;;;;;23.08;14.52;;;23.40;1.00;;;;;;5015902;28;20065;-36
2023/09/11 04:00:12;;;;;;;20.00;14.43;;;23.40;1.00;;;;;;5008549;28;20040;-38
2023/09/11 04:02:38;;;;;;;22.33;14.77;;;23.30;1.00;;;;;;5010626;28;20117;-34
2023/09/11 04:05:05;;;;;;;19.63;14.05;;;24.30;1.00;;;;;;5013145;28;20485;-37
2023/09/11 04:07:37;;;;;;;19.58;13.27;;;23.40;1.00;;;;;;5009784;28;20069;-35
2023/09/11 04:10:03;;;;;;;20.80;13.93;;;24.30;1.00;;;;;;5015862;28;20030;-35
2023/09/11 04:12:29;;;;;;;21.25;14.40;;;23.60;1.00;;;;;;5015816;28;20033;-35
2023/09/11 04:14:54;;;;;;;20.35;13.07;;;24.30;1.00;;;;;;5016311;28;20048;-36
2023/09/11 04:17:20;;;;;;;18.48;12.88;;;23.70;1.00;;;;;;5015466;28;20884;-37
2023/09/11 04:19:45;;;;;;;26.10;14.55;;;23.40;1.00;;;;;;5016358;28;20037;-35
2023/09/11 04:22:11;;;;;;;22.10;13.93;;;23.40;1.00;;;;;;5015564;28;20038;-37
2023/09/11 04:24:37;;;;;;;18.35;13.40;;;23.30;3.90;;;;;;5016118;28;20038;-36
2023/09/11 04:27:03;;;;;;;20.73;13.30;;;23.70;6.10;;;;;;5014519;28;20567;-35
2023/09/11 04:29:51;;;;;;;21.50;11.77;;;24.00;5.40;;;;;;5015634;28;20457;-37
2023/09/11 04:32:17;;;;;;;17.40;12.15;;;23.30;12.30;;;;;;5012088;28;20043;-38
2023/09/11 04:34:46;;;;;;;21.63;12.82;;;23.10;15.40;;;;;;5015729;28;20065;-37
2023/09/11 04:37:17;;;;;;;20.55;12.13;;;23.40;1.00;;;;;;5014934;28;20433;-37
2023/09/11 04:39:42;;;;;;;18.42;12.88;;;24.20;16.40;;;;;;5015128;28;20450;-36
2023/09/11 04:42:08;;;;;;;21.52;12.85;;;24.30;15.40;;;;;;5012821;28;20145;-35
2023/09/11 04:44:34;;;;;;;21.55;13.25;;;24.10;13.10;;;;;;5012507;28;20485;-38
2023/09/11 04:47:02;;;;;;;17.95;13.00;;;23.60;13.90;;;;;;5008709;28;20034;-37
2023/09/11 04:49:28;;;;;;;22.30;14.38;;;23.90;5.10;;;;;;5010869;28;20037;-35
2023/09/11 04:51:54;;;;;;;20.13;14.65;;;23.90;1.60;;;;;;5012428;28;20180;-35
2023/09/11 04:54:19;;;;;;;18.10;14.02;;;23.40;1.00;;;;;;5007917;28;21368;-36
2023/09/11 04:56:45;;;;;;;17.42;13.32;;;23.20;1.00;;;;;;5005627;28;20033;-35
2023/09/11 04:59:10;;;;;;;20.55;15.05;;;24.50;4.90;;;;;;5005249;28;20034;-38
2023/09/11 05:01:36;;;;;;;22.20;14.35;;;23.90;6.60;;;;;;5005247;28;20413;-36
2023/09/11 05:04:03;;;;;;;25.40;15.10;;;23.70;11.20;;;;;;5004411;28;20034;-36
2023/09/11 05:06:28;;;;;;;17.08;14.30;;;23.50;19.50;;;;;;5005119;28;20041;-36
2023/09/11 05:08:55;;;;;;;19.90;14.25;;;23.40;22.40;;;;;;5010888;28;20046;-38
2023/09/11 05:11:21;;;;;;;17.50;13.73;;;23.20;24.60;;;;;;5008902;28;20046;-35
2023/09/11 05:13:46;;;;;;;22.02;14.75;;;23.70;27.30;;;;;;5008803;28;20056;-35
2023/09/11 05:16:12;;;;;;;20.98;13.65;;;23.50;28.00;;;;;;5005019;28;20132;-36
2023/09/11 05:18:37;;;;;;;17.75;14.63;;;24.00;31.30;;;;;;5009182;28;20041;-36
2023/09/11 05:21:03;;;;;;;23.30;14.65;;;23.40;36.70;;;;;;5011513;28;20053;-36
2023/09/11 05:23:29;;;;;;;23.10;14.00;;;23.20;38.50;;;;;;5009891;28;20064;-36
2023/09/11 05:25:54;;;;;;;19.50;14.00;;;23.30;41.30;;;;;;5008031;28;20133;-37
2023/09/11 05:28:20;;;;;;;17.75;14.57;;;23.30;40.40;;;;;;5008258;28;20069;-35
2023/09/11 05:30:46;;;;;;;24.35;14.98;;;23.70;42.10;;;;;;5008648;28;20113;-38
2023/09/11 05:33:11;;;;;;;16.65;13.32;;;23.40;40.40;;;;;;4911272;28;20338;-36
2023/09/11 05:35:38;;;;;;;19.20;13.60;;;23.80;44.20;;;;;;4985270;28;20704;-36
2023/09/11 05:38:04;;;;;;;22.85;15.27;;;23.10;50.90;;;;;;5001530;28;20050;-35
2023/09/11 05:40:29;;;;;;;20.63;14.07;;;23.20;57.70;;;;;;4999262;28;20059;-36
2023/09/11 05:42:55;;;;;;;20.48;14.77;;;23.30;58.90;;;;;;5001899;28;20530;-36
2023/09/11 05:45:21;;;;;;;19.73;13.82;;;24.20;61.90;;;;;;5001228;28;20041;-36
2023/09/11 05:47:46;;;;;;;20.23;13.07;;;23.50;65.00;;;;;;5000955;28;20567;-34
2023/09/11 05:50:14;;;;;;;23.23;14.60;;;23.90;66.90;;;;;;5000410;28;20547;-36
2023/09/11 05:52:40;;;;;;;20.77;13.88;;;24.20;74.10;;;;;;5001282;28;20030;-37
2023/09/11 05:55:06;;;;;;;23.63;14.38;;;23.20;81.30;;;;;;5001761;28;20034;-36
2023/09/11 05:57:31;;;;;;;19.75;13.90;;;23.30;81.40;;;;;;5009209;28;20069;-37
2023/09/11 05:59:57;;;;;;;18.88;13.85;;;23.80;93.50;;;;;;5010158;28;20089;-35
2023/09/11 06:02:23;;;;;;;19.30;14.57;;;23.70;92.40;;;;;;5007852;28;20088;-35
2023/09/11 06:04:48;;;;;;;18.70;14.60;;;24.40;93.60;;;;;;5011002;28;20141;-38
2023/09/11 06:07:16;;;;;;;22.52;15.02;;;23.10;94.40;;;;;;5010273;28;20045;-36
2023/09/11 06:09:42;;;;;;;20.40;15.68;;;23.20;96.30;;;;;;5010676;28;20401;-38
2023/09/11 06:12:08;;;;;;;21.45;14.27;;;23.20;98.70;;;;;;5011102;28;20038;-37
2023/09/11 06:14:37;;;;;;;19.95;14.38;;;24.20;99.90;;;;;;5009827;28;20273;-36
2023/09/11 06:17:04;;;;;;;20.65;14.82;;;23.50;99.90;;;;;;5010708;28;20408;-37
2023/09/11 06:19:31;;;;;;;21.25;16.67;;;23.40;99.90;;;;;;5010283;28;20038;-37
2023/09/11 06:21:56;;;;;;;20.33;16.83;;;24.30;99.90;;;;;;5011110;28;20045;-36
2023/09/11 06:24:22;;;;;;;19.02;17.05;;;23.50;99.90;;;;;;5010546;28;20413;-38
2023/09/11 06:27:02;;;;;;;19.58;16.58;;;26.20;99.90;;;;;;5010412;28;20030;-36
2023/09/11 06:29:28;;;;;;;21.95;16.25;;;24.50;99.90;;;;;;5010343;28;20088;-36
2023/09/11 06:31:54;;;;;;;23.67;17.60;;;23.40;99.90;;;;;;5010426;28;20049;-36
2023/09/11 06:34:19;;;;;;;21.65;16.25;;;24.40;99.90;;;;;;5009778;28;20125;-35
2023/09/11 06:36:46;;;;;;;19.02;15.15;;;23.60;99.90;;;;;;5010483;28;20046;-35
2023/09/11 06:39:11;;;;;;;18.48;14.88;;;24.50;99.90;;;;;;5010323;28;20041;-34
2023/09/11 06:41:37;;;;;;;19.40;15.48;;;24.20;99.90;;;;;;5007861;28;20050;-37
2023/09/11 06:44:03;;;;;;;20.27;14.52;;;24.30;99.90;;;;;;5009998;28;20034;-37
2023/09/11 06:46:29;;;;;;;19.00;13.90;;;23.10;99.90;;;;;;5009479;28;20050;-34
2023/09/11 06:48:55;;;;;;;21.40;14.52;;;23.70;99.90;;;;;;5010711;28;20041;-36
2023/09/11 06:51:20;;;;;;;19.50;15.27;;;23.40;99.90;;;;;;5008066;28;20108;-35
2023/09/11 06:53:48;;;;;;;22.00;14.57;;;24.40;99.90;;;;;;5010010;28;20034;-36
2023/09/11 06:56:13;;;;;;;19.05;14.15;;;23.30;99.90;;;;;;5009813;28;20136;-37
2023/09/11 06:58:42;;;;;;;19.85;14.27;;;23.80;99.90;;;;;;5009398;28;20492;-34
2023/09/11 07:01:08;;;;;;;21.08;15.75;;;23.80;99.90;;;;;;5010111;28;20049;-36
2023/09/11 07:03:34;;;;;;;17.85;14.13;;;24.50;99.90;;;;;;5010188;28;20048;-35
2023/09/11 07:05:59;;;;;;;19.90;14.57;;;24.60;99.90;;;;;;5009277;28;20481;-36
2023/09/11 07:08:25;;;;;;;18.83;13.70;;;23.70;99.90;;;;;;5009768;28;20041;-36
2023/09/11 07:10:51;;;;;;;20.58;14.38;;;23.20;99.90;;;;;;5009061;28;20034;-37
2023/09/11 07:13:17;;;;;;;21.33;14.43;;;23.40;99.90;;;;;;5010176;28;20030;-37
2023/09/11 07:15:43;;;;;;;21.90;14.73;;;23.40;99.90;;;;;;5009171;28;20527;-35
2023/09/11 07:18:08;;;;;;;24.02;15.68;;;23.40;99.90;;;;;;5010454;28;20456;-34
2023/09/11 07:20:34;;;;;;;22.05;15.63;;;24.40;99.90;;;;;;5009947;28;20054;-36
2023/09/11 07:23:00;;;;;;;23.40;15.15;;;23.70;99.90;;;;;;5008961;28;20118;-37
2023/09/11 07:25:25;;;;;;;22.10;16.25;;;24.50;99.90;;;;;;5009497;28;20721;-38
2023/09/11 07:27:54;;;;;;;17.25;13.95;;;24.50;99.90;;;;;;5009882;28;20605;-37
2023/09/11 07:30:19;;;;;;;21.08;16.33;;;23.70;99.90;;;;;;5003524;28;20069;-35
2023/09/11 07:32:45;;;;;;;21.63;14.93;;;24.20;99.90;;;;;;5010394;28;20524;-37
2023/09/11 07:35:11;;;;;;;18.90;14.57;;;23.90;99.90;;;;;;5006224;28;20044;-35
2023/09/11 07:37:37;;;;;;;20.20;14.65;;;23.80;99.90;;;;;;5008334;28;20041;-37
2023/09/11 07:40:07;;;;;;;18.67;13.88;;;23.60;99.90;;;;;;5009943;28;20113;-35
2023/09/11 07:42:32;;;;;;;22.77;16.58;;;23.90;99.90;;;;;;5009533;28;20128;-35
2023/09/11 07:44:58;;;;;;;21.23;15.75;;;24.60;99.90;;;;;;5009698;28;20524;-36
2023/09/11 07:47:24;;;;;;;23.98;16.23;;;24.10;99.90;;;;;;5002717;23;20050;-74
2023/09/11 07:49:49;;;;;;;21.35;17.20;;;23.00;99.90;;;;;;4971788;28;20078;-74
2023/09/11 07:52:15;;;;;;;20.73;16.00;;;24.60;99.90;;;;;;4964480;28;20110;-73
2023/09/11 07:54:42;;;;;;;17.98;14.68;;;24.20;99.90;;;;;;4966923;28;20046;-73
2023/09/11 07:57:07;;;;;;;23.63;15.30;;;23.80;99.90;;;;;;4969258;28;20078;-74
2023/09/11 07:59:33;;;;;;;19.55;16.48;;;24.70;99.90;;;;;;4954466;28;20078;-73
2023/09/11 08:01:58;;;;;;;23.52;15.88;;;24.40;99.90;;;;;;4968300;28;20070;-73
2023/09/11 08:04:24;;;;;;;18.98;14.27;;;23.70;99.90;;;;;;4958816;28;20352;-73
2023/09/11 08:06:50;;;;;;;16.80;12.48;;;24.40;99.90;;;;;;4963237;28;20039;-73
2023/09/11 08:09:15;;;;;;;18.20;12.73;;;24.60;99.90;;;;;;4963999;28;20461;-74
2023/09/11 08:11:41;;;;;;;16.67;12.75;;;23.70;99.90;;;;;;4968693;28;20461;-74
2023/09/11 08:14:07;;;;;;;18.05;13.13;;;23.80;99.90;;;;;;4970831;28;20101;-74
2023/09/11 08:16:33;;;;;;;17.35;13.35;;;23.90;99.90;;;;;;4968101;28;20232;-74
2023/09/11 08:18:58;;;;;;;21.15;14.07;;;23.60;99.90;;;;;;4971389;28;20513;-74
2023/09/11 08:21:24;;;;;;;18.00;12.68;;;24.60;99.90;;;;;;4971244;28;20413;-73
2023/09/11 08:23:50;;;;;;;15.98;12.57;;;24.40;99.90;;;;;;4966370;28;20062;-73
2023/09/11 08:26:16;;;;;;;16.15;11.85;;;25.00;99.90;;;;;;4969111;28;20047;-74
2023/09/11 08:28:42;;;;;;;18.95;12.57;;;23.80;99.90;;;;;;4971864;28;20043;-73
2023/09/11 08:31:08;;;;;;;15.55;12.57;;;24.20;99.90;;;;;;4956710;28;20035;-73
2023/09/11 08:33:34;;;;;;;16.55;12.93;;;23.80;99.90;;;;;;4971311;28;20035;-74
2023/09/11 08:35:59;;;;;;;15.45;12.43;;;23.80;99.90;;;;;;4973440;28;20509;-74
2023/09/11 08:38:25;;;;;;;16.05;12.32;;;25.00;99.90;;;;;;4972712;28;20035;-75
2023/09/11 08:40:51;;;;;;;16.10;11.93;;;23.80;99.90;;;;;;4972500;28;20042;-75
2023/09/11 08:43:17;;;;;;;16.58;11.35;;;24.20;99.90;;;;;;4969522;28;20122;-77
2023/09/11 08:45:43;;;;;;;15.35;12.32;;;25.00;99.90;;;;;;4971537;28;20118;-74
2023/09/11 08:48:14;;;;;;;17.77;12.30;;;24.40;99.90;;;;;;4972490;28;21080;-75
2023/09/11 08:50:48;;;;;;;15.40;11.55;;;24.40;99.90;;;;;;4955904;28;20057;-75
2023/09/11 08:53:17;;;;;;;16.55;12.52;;;24.30;99.90;;;;;;4972593;28;20047;-74
2023/09/11 08:55:45;;;;;;;15.57;11.68;;;24.70;99.90;;;;;;4971617;28;20537;-74
2023/09/11 08:58:13;;;;;;;17.10;12.07;;;23.70;99.90;;;;;;4972378;28;20045;-75
2023/09/11 09:00:38;;;;;;;14.50;11.32;;;24.20;99.90;;;;;;4971752;28;20050;-74
2023/09/11 09:03:05;;;;;;;13.68;11.55;;;23.80;99.90;;;;;;4972660;28;20117;-75
2023/09/11 09:05:33;;;;;;;13.95;12.02;;;24.30;99.90;;;;;;4969809;28;20047;-75
2023/09/11 09:08:01;;;;;;;16.15;11.73;;;24.40;99.90;;;;;;4973349;28;20126;-75
2023/09/11 09:10:26;;;;;;;17.83;12.48;;;24.10;99.90;;;;;;4949194;28;20053;-75
2023/09/11 09:12:54;;;;;;;13.73;12.23;;;23.80;99.90;;;;;;4973164;28;20113;-75
2023/09/11 09:15:21;;;;;;;16.83;12.55;;;23.90;99.90;;;;;;4956097;28;20073;-72
2023/09/11 09:17:47;;;;;;;14.20;12.27;;;24.00;99.90;;;;;;4955189;28;20043;-74
2023/09/11 09:20:13;;;;;;;15.32;11.63;;;24.00;99.90;;;;;;4973523;28;20038;-73
2023/09/11 09:23:00;;;;;;;15.65;12.80;;;24.50;99.90;;;;;;4970979;28;20051;-73
2023/09/11 09:25:27;;;;;;;14.07;11.82;;;24.30;99.90;;;;;;4971179;28;20046;-73
2023/09/11 09:27:54;;;;;;;14.77;12.27;;;24.50;99.90;;;;;;4954473;28;20502;-74
2023/09/11 09:30:21;;;;;;;13.48;11.18;;;24.30;99.90;;;;;;4971668;28;20035;-73
2023/09/11 09:32:48;;;;;;;15.60;11.63;;;24.10;99.90;;;;;;4971299;28;20035;-73
2023/09/11 09:35:15;;;;;;;14.43;12.23;;;24.90;99.90;;;;;;4971609;28;20051;-74
2023/09/11 09:37:49;;;;;;;14.68;12.43;;;25.20;99.90;;;;;;4970320;28;20050;-74
2023/09/11 09:40:29;;;;;;;16.17;12.43;;;24.20;99.90;;;;;;4967778;28;20082;-74
2023/09/11 09:42:58;;;;;;;18.02;13.18;;;25.10;99.90;;;;;;4970978;28;20053;-74
2023/09/11 09:45:29;;;;;;;20.52;13.05;;;23.90;99.90;;;;;;4966409;28;20043;-73
2023/09/11 09:48:09;;;;;;;16.45;11.88;;;24.00;99.90;;;;;;4970202;28;20038;-74
2023/09/11 09:51:01;;;;;;;13.68;11.65;;;24.30;99.90;;;;;;4954764;28;20121;-73
2023/09/11 09:53:31;;;;;;;14.10;10.95;;;24.80;99.90;;;;;;4971368;28;20058;-74
2023/09/11 09:56:03;;;;;;;15.73;11.27;;;24.40;99.90;;;;;;4954264;28;20050;-74
2023/09/11 09:58:31;;;;;;;14.88;11.57;;;24.70;99.90;;;;;;4972164;28;20561;-73
2023/09/11 10:01:07;;;;;;;16.02;11.00;;;24.20;99.90;;;;;;4970818;28;20035;-73
2023/09/11 10:03:45;;;;;;;15.13;11.02;;;24.60;99.90;;;;;;4971162;28;20112;-74
2023/09/11 10:06:31;;;;;;;13.38;10.55;;;23.90;99.90;;;;;;4966371;28;20039;-74
2023/09/11 10:09:06;;;;;;;11.65;8.73;;;24.10;99.90;;;;;;4970248;28;20584;-74
2023/09/11 10:11:33;;;;;;;14.52;8.95;;;25.20;99.90;;;;;;4970980;28;20097;-74
2023/09/11 10:14:02;;;;;;;11.45;8.88;;;24.00;99.90;;;;;;4964707;28;20034;-74
2023/09/11 10:16:28;;;;;;;14.00;8.30;;;24.10;99.90;;;;;;4970179;28;20078;-76
2023/09/11 10:18:55;;;;;;;14.85;8.27;;;25.00;99.90;;;;;;4970502;28;20085;-74
2023/09/11 10:21:22;;;;;;;11.50;7.68;;;24.80;99.90;;;;;;4971795;28;20341;-73
2023/09/11 10:23:47;;;;;;;11.15;8.63;;;24.10;99.90;;;;;;4954051;28;20579;-74
2023/09/11 10:26:24;;;;;;;10.95;7.93;;;24.20;99.20;;;;;;4970210;28;20050;-74
2023/09/11 10:28:54;;;;;;;13.80;7.85;;;25.20;83.60;;;;;;4983800;28;20097;-74
2023/09/11 10:31:25;;;;;;;11.98;8.52;;;25.00;94.40;;;;;;4970732;28;20143;-74
2023/09/11 10:33:55;;;;;;;12.40;7.97;;;25.10;76.10;;;;;;4954024;28;20042;-74
2023/09/11 10:36:23;;;;;;;10.02;8.23;;;25.20;90.80;;;;;;4960864;28;20129;-74
2023/09/11 10:38:52;;;;;;;14.70;8.85;;;24.40;86.60;;;;;;4970250;28;20113;-74
2023/09/11 10:41:18;;;;;;;11.73;7.95;;;24.80;81.20;;;;;;4966456;28;20093;-74
2023/09/11 10:43:47;;;;;;;11.77;7.35;;;24.10;74.90;;;;;;4970280;28;20043;-74
2023/09/11 10:46:22;;;;;;;14.10;8.95;;;25.20;72.70;;;;;;4970912;28;20035;-74
2023/09/11 10:48:50;;;;;;;15.95;7.85;;;25.00;73.40;;;;;;4970091;28;20153;-74
2023/09/11 10:51:16;;;;;;;11.20;8.45;;;24.20;66.10;;;;;;4970123;28;20386;-74
2023/09/11 10:53:43;;;;;;;12.60;8.25;;;25.30;62.80;;;;;;4969698;28;20050;-74
2023/09/11 10:56:10;;;;;;;9.80;6.90;;;24.90;65.80;;;;;;4969947;28;20038;-74
2023/09/11 10:58:37;;;;;;;12.13;7.55;;;25.30;63.70;;;;;;4968703;28;20043;-74
2023/09/11 11:01:04;;;;;;;12.75;7.63;;;25.00;57.50;;;;;;4969678;28;20532;-74
2023/09/11 11:03:31;;;;;;;8.93;6.75;;;24.10;53.50;;;;;;4969996;28;20126;-74
2023/09/11 11:06:01;;;;;;;14.13;6.95;;;24.40;51.50;;;;;;4969166;28;20051;-74
2023/09/11 11:08:34;;;;;;;11.15;6.00;;;25.10;48.60;;;;;;4969761;28;20042;-74
2023/09/11 11:11:01;;;;;;;8.23;5.60;;;25.10;36.30;;;;;;4969641;28;20039;-73
2023/09/11 11:13:27;;;;;;;8.93;6.07;;;25.00;32.30;;;;;;4953748;28;20077;-73
2023/09/11 11:16:19;;;;;;;8.82;5.35;;;25.30;20.60;;;;;;4967480;28;20035;-74
2023/09/11 11:18:44;;;;;;;10.32;5.75;;;25.20;1.00;;;;;;4972111;28;20418;-74
2023/09/11 11:21:10;;;;;;;9.77;5.13;;;24.10;2.40;;;;;;4969942;28;20042;-74
2023/09/11 11:23:55;;;;;;;9.20;5.63;;;24.30;1.00;;;;;;4970792;28;20041;-74
2023/09/11 11:26:24;;;;;;;9.27;5.25;;;25.20;1.00;;;;;;4966168;28;20079;-73
2023/09/11 11:28:51;;;;;;;11.90;5.15;;;24.90;1.00;;;;;;4953464;28;20086;-73
2023/09/11 11:31:21;;;;;;;8.85;5.45;;;24.10;1.00;;;;;;4971227;28;20410;-74
2023/09/11 11:33:51;;;;;;;10.25;5.28;;;24.50;1.00;;;;;;4966557;28;20141;-75
2023/09/11 11:36:18;;;;;;;9.63;5.10;;;24.30;1.00;;;;;;4965961;28;20058;-74
2023/09/11 11:38:45;;;;;;;8.00;4.85;;;25.30;1.00;;;;;;4953103;28;20046;-73
2023/09/11 11:41:11;;;;;;;9.48;5.40;;;24.10;1.00;;;;;;4969704;28;20037;-74
2023/09/11 11:43:39;;;;;;;9.38;5.70;;;24.20;1.00;;;;;;4969712;28;20097;-74
2023/09/11 11:46:08;;;;;;;9.23;5.63;;;24.70;1.00;;;;;;4961371;28;20077;-74
2023/09/11 11:48:34;;;;;;;10.77;5.93;;;25.30;1.00;;;;;;4970450;28;20039;-74
2023/09/11 11:50:59;;;;;;;10.68;6.35;;;25.20;1.00;;;;;;4969331;28;20043;-73
2023/09/11 11:53:25;;;;;;;10.45;6.60;;;25.40;1.00;;;;;;4973447;28;20039;-73
2023/09/11 11:55:56;;;;;;;9.15;6.78;;;25.10;1.00;;;;;;4972711;28;20399;-73
2023/09/11 11:58:22;;;;;;;12.60;7.22;;;25.30;1.00;;;;;;4957256;28;20055;-74
2023/09/11 12:01:02;;;;;;;9.43;6.35;;;24.90;1.00;;;;;;4974347;28;20055;-74
2023/09/11 12:03:31;;;;;;;10.13;6.70;;;25.10;1.00;;;;;;4973068;28;20141;-74
2023/09/11 12:05:59;;;;;;;12.25;6.32;;;25.40;1.00;;;;;;4972332;28;20130;-74
2023/09/11 12:08:25;;;;;;;11.75;6.47;;;24.70;1.00;;;;;;4973068;28;20053;-74
2023/09/11 12:10:51;;;;;;;10.18;6.88;;;25.40;1.00;;;;;;4972995;28;20035;-74
2023/09/11 12:13:24;;;;;;;11.90;6.53;;;25.00;1.00;;;;;;4957802;28;20433;-74
2023/09/11 12:15:56;;;;;;;10.73;6.30;;;24.90;1.00;;;;;;4971976;28;20039;-73
2023/09/11 12:18:23;;;;;;;13.95;7.20;;;25.50;1.00;;;;;;4957098;28;20050;-74
2023/09/11 12:20:53;;;;;;;11.80;6.95;;;25.40;1.00;;;;;;4972515;28;20074;-76
2023/09/11 12:23:20;;;;;;;9.82;7.15;;;25.30;1.00;;;;;;4972974;28;20097;-74
2023/09/11 12:25:46;;;;;;;9.82;6.50;;;25.00;1.00;;;;;;4956197;28;20050;-76
2023/09/11 12:28:11;;;;;;;11.75;7.32;;;24.40;1.00;;;;;;4973861;28;20383;-74
2023/09/11 12:30:38;;;;;;;10.68;7.03;;;25.00;1.00;;;;;;4974002;28;20042;-74
2023/09/11 12:33:10;;;;;;;13.30;7.85;;;25.10;1.00;;;;;;4969617;28;20045;-74
2023/09/11 12:35:36;;;;;;;10.82;7.20;;;24.30;1.00;;;;;;4972454;28;20050;-74